Time;durP1;ratioP1;P1;durP2;ratioP2;P2;SDS_P1;SDS_P2;PMS_P1;PMS_P2;Temp;Humidity;BMP_temperature;BMP_pressure;BME280_temperature;BME280_humidity;BME280_pressure;Samples;Min_cycle;Max_cycle;Signal;HPM_P1;HPM_P2
2022/10/04 00:01:57;;;;;;;;;;;18.00;99.80;;;;;;5096933;28;19919;-90
2022/10/04 00:04:40;;;;;;;;;;;18.00;99.80;;;;;;5095849;28;19908;-90
2022/10/04 00:07:11;;;;;;;;;;;18.00;99.80;;;;;;5094668;28;19908;-90
2022/10/04 00:09:46;;;;;;;;;;;18.00;99.80;;;;;;5095418;28;19919;-89
2022/10/04 00:12:24;;;;;;;;;;;17.90;99.80;;;;;;5096066;28;19908;-91
2022/10/04 00:14:54;;;;;;;;;;;17.90;99.80;;;;;;5094923;28;19908;-91
2022/10/04 00:17:27;;;;;;;;;;;17.90;99.80;;;;;;5095842;28;19908;-90
2022/10/04 00:19:54;;;;;;;;;;;17.90;99.70;;;;;;5094513;28;19919;-90
2022/10/04 00:22:22;;;;;;;;;;;17.90;99.70;;;;;;5096320;28;19918;-90
2022/10/04 00:25:06;;;;;;;;;;;17.90;99.70;;;;;;5096654;28;20315;-90
2022/10/04 00:27:33;;;;;;;;;;;17.90;99.70;;;;;;5096211;28;19914;-90
2022/10/04 00:30:01;;;;;;;;;;;17.90;99.70;;;;;;5096108;28;19912;-90
2022/10/04 00:32:30;;;;;;;;;;;17.90;99.70;;;;;;5096645;28;19989;-90
2022/10/04 00:35:00;;;;;;;;;;;17.90;99.70;;;;;;5095788;28;19916;-90
2022/10/04 00:37:26;;;;;;;;;;;17.80;99.70;;;;;;5096514;28;20295;-90
2022/10/04 00:40:01;;;;;;;;;;;17.80;99.70;;;;;;5096197;28;19943;-90
2022/10/04 00:42:36;;;;;;;;;;;17.80;99.70;;;;;;5097168;28;19908;-90
2022/10/04 00:45:09;;;;;;;;;;;17.80;99.70;;;;;;5095921;28;20304;-91
2022/10/04 00:47:51;;;;;;;;;;;17.80;99.70;;;;;;5097456;28;20185;-90
2022/10/04 00:50:21;;;;;;;;;;;17.80;99.90;;;;;;5092526;28;19916;-90
2022/10/04 00:52:50;;;;;;;;;;;17.80;99.60;;;;;;5092360;28;20288;-91
2022/10/04 00:55:36;;;;;;;;;;;17.80;99.60;;;;;;5092169;28;19918;-91
2022/10/04 00:58:03;;;;;;;;;;;17.80;99.60;;;;;;5091487;28;20356;-91
2022/10/04 01:00:32;;;;;;;;;;;17.80;99.60;;;;;;5091910;28;19914;-91
2022/10/04 01:03:02;;;;;;;;;;;17.80;99.50;;;;;;5091528;28;20208;-91
2022/10/04 01:05:30;;;;;;;;;;;17.80;99.50;;;;;;5091196;28;19908;-91
2022/10/04 01:07:56;;;;;;;;;;;17.80;99.40;;;;;;5092300;28;19916;-89
2022/10/04 01:10:27;;;;;;;;;;;17.80;99.40;;;;;;5092880;28;19908;-89
2022/10/04 01:12:54;;;;;;;;;;;17.80;99.40;;;;;;5091880;28;20078;-89
2022/10/04 01:15:35;;;;;;;;;;;17.80;99.70;;;;;;5092935;28;19916;-89
2022/10/04 01:18:12;;;;;;;;;;;17.80;99.40;;;;;;5093834;28;20175;-89
2022/10/04 01:20:39;;;;;;;;;;;17.80;99.40;;;;;;5094974;28;20269;-90
2022/10/04 01:23:05;;;;;;;;;;;17.70;99.40;;;;;;5095614;28;20353;-90
2022/10/04 01:25:42;;;;;;;;;;;17.70;99.30;;;;;;5095828;28;20102;-89
2022/10/04 01:28:08;;;;;;;;;;;17.70;99.30;;;;;;5095123;28;19911;-90
2022/10/04 01:30:33;;;;;;;;;;;17.70;99.30;;;;;;5094560;28;19935;-89
2022/10/04 01:32:59;;;;;;;;;;;17.70;99.40;;;;;;5094048;28;19908;-89
2022/10/04 01:35:25;;;;;;;;;;;17.70;99.30;;;;;;5096655;28;20073;-90
2022/10/04 01:37:51;;;;;;;;;;;17.70;99.30;;;;;;5095013;28;20151;-89
2022/10/04 01:40:20;;;;;;;;;;;17.70;99.30;;;;;;5094478;28;20011;-90
2022/10/04 01:42:50;;;;;;;;;;;17.70;99.30;;;;;;5096960;28;19939;-92
2022/10/04 01:45:15;;;;;;;;;;;17.70;99.30;;;;;;5094089;28;20014;-90
2022/10/04 01:47:49;;;;;;;;;;;17.70;99.30;;;;;;5092904;28;20241;-90
2022/10/04 01:50:35;;;;;;;;;;;17.70;99.20;;;;;;5093447;28;20015;-90
2022/10/04 01:53:13;;;;;;;;;;;17.70;99.20;;;;;;5092182;28;19993;-91
2022/10/04 01:55:42;;;;;;;;;;;17.70;99.20;;;;;;5093812;28;20042;-90
2022/10/04 01:58:16;;;;;;;;;;;17.70;99.20;;;;;;5094623;28;19969;-90
2022/10/04 02:00:45;;;;;;;;;;;17.60;99.10;;;;;;5093959;28;20185;-90
2022/10/04 02:03:16;;;;;;;;;;;17.60;99.10;;;;;;5094955;28;20280;-90
2022/10/04 02:05:46;;;;;;;;;;;17.60;99.10;;;;;;5094938;28;19995;-89
2022/10/04 02:08:17;;;;;;;;;;;17.60;99.10;;;;;;5094788;28;19912;-90
2022/10/04 02:10:44;;;;;;;;;;;17.60;99.10;;;;;;5094907;28;19973;-90
2022/10/04 02:13:19;;;;;;;;;;;17.60;99.10;;;;;;5095308;28;20181;-90
2022/10/04 02:15:48;;;;;;;;;;;17.60;99.10;;;;;;5103198;28;19972;-92
2022/10/04 02:18:22;;;;;;;;;;;17.60;99.00;;;;;;5107240;28;19951;-92
2022/10/04 02:20:49;;;;;;;;;;;17.60;99.00;;;;;;5103183;28;19916;-92
2022/10/04 02:23:16;;;;;;;;;;;17.60;99.10;;;;;;5100332;28;20208;-92
2022/10/04 02:25:41;;;;;;;;;;;17.60;99.00;;;;;;5103502;28;19908;-92
2022/10/04 02:28:12;;;;;;;;;;;17.60;99.00;;;;;;5103831;28;19930;-92
2022/10/04 02:30:40;;;;;;;;;;;17.60;99.00;;;;;;5105563;28;19915;-91
2022/10/04 02:33:05;;;;;;;;;;;17.60;99.00;;;;;;5108613;28;19946;-91
2022/10/04 02:35:40;;;;;;;;;;;17.60;99.00;;;;;;5106387;28;19908;-91
2022/10/04 02:38:12;;;;;;;;;;;17.50;99.00;;;;;;5108780;28;19908;-92
2022/10/04 02:40:47;;;;;;;;;;;17.60;99.00;;;;;;5107497;28;19916;-92
2022/10/04 02:43:37;;;;;;;;;;;17.50;98.90;;;;;;5103649;28;20007;-91
2022/10/04 02:46:07;;;;;;;;;;;17.50;99.00;;;;;;5101698;28;19908;-92
2022/10/04 02:48:38;;;;;;;;;;;17.50;98.90;;;;;;5102638;28;19916;-91
2022/10/04 02:51:24;;;;;;;;;;;17.50;98.90;;;;;;5096204;28;19908;-90
2022/10/04 02:54:02;;;;;;;;;;;17.50;98.90;;;;;;5092813;28;19919;-89
2022/10/04 02:56:31;;;;;;;;;;;17.50;98.90;;;;;;5093905;28;19909;-90
2022/10/04 02:59:07;;;;;;;;;;;17.50;98.90;;;;;;5093850;28;20150;-90
2022/10/04 03:01:42;;;;;;;;;;;17.50;98.90;;;;;;5093062;28;19934;-90
2022/10/04 03:04:10;;;;;;;;;;;17.50;98.80;;;;;;5094014;28;19947;-90
2022/10/04 03:06:39;;;;;;;;;;;17.50;98.80;;;;;;5093006;28;19963;-90
2022/10/04 03:09:05;;;;;;;;;;;17.50;98.80;;;;;;5093617;28;19920;-90
2022/10/04 03:11:35;;;;;;;;;;;17.50;98.80;;;;;;5093170;28;19912;-90
2022/10/04 03:14:04;;;;;;;;;;;17.50;98.80;;;;;;5092787;28;20309;-90
2022/10/04 03:16:34;;;;;;;;;;;17.50;98.80;;;;;;5093049;28;19909;-90
2022/10/04 03:19:00;;;;;;;;;;;17.50;98.80;;;;;;5092973;28;19908;-89
2022/10/04 03:21:26;;;;;;;;;;;17.50;98.80;;;;;;5093343;28;20244;-90
2022/10/04 03:23:52;;;;;;;;;;;17.40;98.80;;;;;;5092474;28;19969;-91
2022/10/04 03:26:27;;;;;;;;;;;17.40;98.70;;;;;;5093002;28;20178;-91
2022/10/04 03:28:57;;;;;;;;;;;17.40;98.70;;;;;;5093182;28;20365;-93
2022/10/04 03:31:25;;;;;;;;;;;17.40;98.70;;;;;;5092548;28;19909;-93
2022/10/04 03:33:55;;;;;;;;;;;17.40;98.70;;;;;;5091388;28;19982;-93
2022/10/04 03:36:22;;;;;;;;;;;17.40;98.70;;;;;;5094486;28;19916;-93
2022/10/04 03:38:50;;;;;;;;;;;17.40;98.70;;;;;;5094868;28;20326;-93
2022/10/04 03:41:17;;;;;;;;;;;17.40;98.70;;;;;;5094305;28;20004;-93
2022/10/04 03:43:46;;;;;;;;;;;17.40;98.60;;;;;;5095078;28;19908;-93
2022/10/04 03:46:13;;;;;;;;;;;17.40;98.60;;;;;;5095096;28;19915;-93
2022/10/04 03:48:38;;;;;;;;;;;17.40;98.70;;;;;;5095161;28;20294;-93
2022/10/04 03:51:05;;;;;;;;;;;17.40;98.70;;;;;;5095836;28;20007;-93
2022/10/04 03:53:36;;;;;;;;;;;17.40;98.60;;;;;;5094430;28;19914;-92
2022/10/04 03:56:10;;;;;;;;;;;17.40;98.60;;;;;;5094731;28;19908;-93
2022/10/04 03:58:36;;;;;;;;;;;17.40;98.60;;;;;;5098371;28;19908;-94
2022/10/04 04:01:07;;;;;;;;;;;17.40;98.60;;;;;;5099104;28;19908;-94
2022/10/04 04:03:40;;;;;;;;;;;17.40;98.60;;;;;;5098349;28;19908;-94
2022/10/04 04:06:07;;;;;;;;;;;17.30;98.50;;;;;;5097099;28;19908;-94
2022/10/04 04:08:35;;;;;;;;;;;17.30;98.50;;;;;;5097457;28;19999;-93
2022/10/04 04:11:06;;;;;;;;;;;17.30;98.50;;;;;;5100632;28;19979;-94
2022/10/04 04:13:48;;;;;;;;;;;17.30;98.50;;;;;;5100126;28;19915;-94
2022/10/04 04:16:13;;;;;;;;;;;17.30;98.50;;;;;;5097359;28;19916;-94
2022/10/04 04:18:40;;;;;;;;;;;17.30;98.50;;;;;;5094391;28;19960;-94
2022/10/04 04:21:06;;;;;;;;;;;17.30;98.50;;;;;;5093315;28;19908;-94
2022/10/04 04:23:42;;;;;;;;;;;17.30;98.40;;;;;;5095429;28;20226;-94
2022/10/04 04:26:20;;;;;;;;;;;17.30;98.50;;;;;;5094237;28;19912;-93
2022/10/04 04:28:50;;;;;;;;;;;17.30;98.50;;;;;;5092768;28;20396;-94
2022/10/04 04:31:16;;;;;;;;;;;17.30;98.40;;;;;;5095188;28;19988;-94
2022/10/04 04:34:11;;;;;;;;;;;17.30;98.40;;;;;;5095438;28;20002;-94
2022/10/04 04:36:40;;;;;;;;;;;17.20;98.40;;;;;;5082332;28;19919;-94
2022/10/04 04:42:22;;;;;;;;;;;17.20;98.40;;;;;;5103084;28;20252;-95
2022/10/04 04:44:50;;;;;;;;;;;17.20;98.40;;;;;;5102025;28;19908;-94
2022/10/04 04:47:26;;;;;;;;;;;17.20;98.40;;;;;;5102732;28;19908;-94
2022/10/04 04:50:00;;;;;;;;;;;17.20;98.30;;;;;;5102750;28;19916;-93
2022/10/04 04:52:27;;;;;;;;;;;17.20;98.30;;;;;;5101078;28;20271;-94
2022/10/04 04:54:54;;;;;;;;;;;17.20;98.30;;;;;;5098548;28;19919;-94
2022/10/04 04:57:20;;;;;;;;;;;17.20;98.40;;;;;;5098403;28;19913;-94
2022/10/04 04:59:51;;;;;;;;;;;17.20;98.30;;;;;;5098035;28;19915;-94
2022/10/04 05:02:30;;;;;;;;;;;17.20;98.30;;;;;;5094909;28;19908;-93
2022/10/04 05:05:19;;;;;;;;;;;17.20;98.30;;;;;;5091145;28;19908;-93
2022/10/04 05:07:44;;;;;;;;;;;17.20;98.30;;;;;;5091419;28;20193;-91
2022/10/04 05:10:21;;;;;;;;;;;17.10;98.50;;;;;;5090579;28;20277;-91
2022/10/04 05:12:47;;;;;;;;;;;17.10;98.20;;;;;;5090679;28;19920;-91
2022/10/04 05:15:13;;;;;;;;;;;17.10;98.20;;;;;;5089487;28;19908;-90
2022/10/04 05:17:41;;;;;;;;;;;17.10;98.20;;;;;;5091477;28;19997;-90
2022/10/04 05:20:10;;;;;;;;;;;17.10;98.10;;;;;;5090168;28;20014;-90
2022/10/04 05:22:40;;;;;;;;;;;17.20;98.20;;;;;;5090492;28;19930;-90
2022/10/04 05:25:14;;;;;;;;;;;17.10;98.10;;;;;;5091378;28;20176;-91
2022/10/04 05:27:43;;;;;;;;;;;17.10;98.10;;;;;;5090591;28;20119;-90
2022/10/04 05:30:12;;;;;;;;;;;17.10;98.10;;;;;;5091059;28;20300;-90
2022/10/04 05:32:59;;;;;;;;;;;17.10;98.00;;;;;;5091241;28;19908;-90
2022/10/04 05:35:25;;;;;;;;;;;17.10;98.10;;;;;;5091395;28;20253;-90
2022/10/04 05:38:15;;;;;;;;;;;17.10;98.00;;;;;;5091715;28;19908;-91
2022/10/04 05:40:52;;;;;;;;;;;17.10;98.10;;;;;;5079870;28;20229;-91
2022/10/04 05:43:39;;;;;;;;;;;17.10;98.00;;;;;;5088688;28;19912;-94
2022/10/04 05:49:07;;;;;;;;;;;17.10;98.00;;;;;;5085398;28;20282;-94
2022/10/04 05:51:47;;;;;;;;;;;17.10;97.90;;;;;;5093462;28;19930;-94
2022/10/04 05:54:23;;;;;;;;;;;17.10;97.90;;;;;;5093378;28;19908;-94
2022/10/04 05:57:09;;;;;;;;;;;17.10;97.90;;;;;;5093269;28;19908;-94
2022/10/04 05:59:38;;;;;;;;;;;17.10;97.80;;;;;;5093188;28;19908;-94
2022/10/04 06:02:26;;;;;;;;;;;17.10;97.80;;;;;;5096744;28;19948;-94
2022/10/04 06:05:04;;;;;;;;;;;17.10;97.70;;;;;;5094344;28;19931;-94
2022/10/04 06:07:36;;;;;;;;;;;17.20;97.70;;;;;;5096130;28;19915;-94
2022/10/04 06:10:23;;;;;;;;;;;17.20;97.70;;;;;;5095950;28;19912;-94
2022/10/04 06:12:59;;;;;;;;;;;17.20;97.80;;;;;;5094013;28;20229;-94
2022/10/04 06:15:40;;;;;;;;;;;17.20;97.70;;;;;;5090424;28;19918;-92
2022/10/04 06:18:24;;;;;;;;;;;17.20;97.70;;;;;;5088180;28;20198;-92
2022/10/04 06:20:50;;;;;;;;;;;17.30;97.80;;;;;;5088178;28;19916;-92
2022/10/04 06:23:17;;;;;;;;;;;17.30;97.70;;;;;;5088417;28;20249;-92
2022/10/04 06:25:46;;;;;;;;;;;17.30;97.60;;;;;;5089100;28;20193;-92
2022/10/04 06:28:14;;;;;;;;;;;17.40;97.60;;;;;;5085005;28;19995;-92
2022/10/04 06:30:56;;;;;;;;;;;17.40;97.50;;;;;;5083868;28;19908;-92
2022/10/04 06:33:30;;;;;;;;;;;17.40;97.50;;;;;;5084688;28;19916;-92
2022/10/04 06:36:06;;;;;;;;;;;17.50;97.50;;;;;;5084705;28;19909;-91
2022/10/04 06:38:47;;;;;;;;;;;17.50;97.40;;;;;;5086100;28;19908;-91
2022/10/04 06:41:31;;;;;;;;;;;17.50;97.30;;;;;;5086483;28;19908;-92
2022/10/04 06:44:05;;;;;;;;;;;17.60;97.10;;;;;;5088569;28;19934;-92
2022/10/04 06:46:41;;;;;;;;;;;17.80;96.90;;;;;;5086448;28;19915;-91
2022/10/04 06:49:28;;;;;;;;;;;18.10;96.60;;;;;;5086600;28;20273;-91
2022/10/04 06:52:12;;;;;;;;;;;18.40;95.80;;;;;;5085356;28;19908;-91
2022/10/04 06:55:02;;;;;;;;;;;18.60;95.00;;;;;;5085444;28;19935;-90
2022/10/04 06:57:30;;;;;;;;;;;18.90;94.20;;;;;;5086649;28;19916;-92
2022/10/04 07:00:03;;;;;;;;;;;19.10;93.60;;;;;;5086212;28;20047;-90
2022/10/04 07:02:39;;;;;;;;;;;19.10;93.00;;;;;;5086328;28;19908;-91
2022/10/04 07:05:20;;;;;;;;;;;19.20;92.70;;;;;;5084356;28;19939;-92
2022/10/04 07:07:48;;;;;;;;;;;19.20;92.50;;;;;;5088330;28;20189;-91
2022/10/04 07:10:36;;;;;;;;;;;19.20;92.50;;;;;;5086949;28;19912;-91
2022/10/04 07:13:02;;;;;;;;;;;19.10;92.60;;;;;;5088071;28;20008;-91
2022/10/04 07:15:30;;;;;;;;;;;19.10;92.60;;;;;;5088445;28;20332;-91
2022/10/04 07:17:57;;;;;;;;;;;19.10;92.70;;;;;;5087253;28;19908;-91
2022/10/04 07:20:32;;;;;;;;;;;19.00;92.60;;;;;;5089283;28;19931;-91
2022/10/04 07:23:19;;;;;;;;;;;19.00;92.70;;;;;;5088244;28;19912;-91
2022/10/04 07:25:52;;;;;;;;;;;19.10;92.60;;;;;;5075614;28;19969;-90
2022/10/04 07:31:10;;;;;;;;;;;19.30;92.00;;;;;;5089810;28;19997;-91
2022/10/04 07:33:56;;;;;;;;;;;19.50;91.50;;;;;;5089902;28;19912;-91
2022/10/04 07:36:28;;;;;;;;;;;19.70;91.00;;;;;;5091097;28;19912;-89
2022/10/04 07:39:03;;;;;;;;;;;20.10;89.70;;;;;;5090887;28;19919;-91
2022/10/04 07:42:00;;;;;;;;;;;20.30;87.80;;;;;;5089380;28;20228;-91
2022/10/04 07:44:32;;;;;;;;;;;20.40;86.30;;;;;;5082926;28;19972;-91
2022/10/04 07:47:18;;;;;;;;;;;20.60;84.60;;;;;;5087503;28;19908;-91
2022/10/04 07:49:45;;;;;;;;;;;20.80;83.10;;;;;;5088343;28;19931;-91
2022/10/04 07:52:29;;;;;;;;;;;20.70;82.60;;;;;;5091624;28;19931;-91
2022/10/04 07:55:06;;;;;;;;;;;20.60;83.20;;;;;;5088719;28;20082;-90
2022/10/04 07:57:42;;;;;;;;;;;20.40;84.20;;;;;;5089996;28;20308;-91
2022/10/04 08:00:18;;;;;;;;;;;20.20;85.50;;;;;;5088324;28;19908;-92
2022/10/04 08:02:59;;;;;;;;;;;20.00;86.80;;;;;;5088044;28;19916;-91
2022/10/04 08:05:31;;;;;;;;;;;19.90;87.90;;;;;;5089232;28;20308;-92
2022/10/04 08:07:59;;;;;;;;;;;19.80;88.50;;;;;;5089970;28;20210;-92
2022/10/04 08:10:29;;;;;;;;;;;20.10;87.80;;;;;;5089639;28;20054;-92
2022/10/04 08:13:33;;;;;;;;;;;20.10;87.00;;;;;;5088011;28;20262;-92
2022/10/04 08:16:02;;;;;;;;;;;20.00;87.30;;;;;;5069562;28;20078;-92
2022/10/04 08:18:28;;;;;;;;;;;20.50;86.40;;;;;;5068402;28;20318;-92
2022/10/04 08:21:07;;;;;;;;;;;20.60;83.30;;;;;;5075664;28;19975;-92
2022/10/04 08:23:46;;;;;;;;;;;20.50;83.90;;;;;;5087267;28;19943;-92
2022/10/04 08:26:33;;;;;;;;;;;20.70;83.40;;;;;;5087923;28;19981;-91
2022/10/04 08:32:10;;;;;;;;;;;22.20;74.10;;;;;;5088372;28;20382;-89
2022/10/04 08:34:55;;;;;;;;;;;22.50;69.80;;;;;;5089148;28;20158;-89
2022/10/04 08:37:27;;;;;;;;;;;22.20;70.80;;;;;;5090091;28;20110;-90
2022/10/04 08:40:11;;;;;;;;;;;22.20;70.90;;;;;;5088641;28;19908;-90
2022/10/04 08:43:10;;;;;;;;;;;22.40;70.30;;;;;;5088398;28;19908;-90
2022/10/04 08:45:55;;;;;;;;;;;23.70;65.40;;;;;;5074400;28;19949;-89
2022/10/04 08:48:39;;;;;;;;;;;25.00;59.50;;;;;;5089050;28;19920;-91
2022/10/04 08:51:21;;;;;;;;;;;25.90;57.20;;;;;;5089178;28;20066;-89
2022/10/04 08:53:50;;;;;;;;;;;26.40;55.70;;;;;;5086868;28;20266;-90
2022/10/04 08:56:18;;;;;;;;;;;26.90;54.50;;;;;;5087554;28;20001;-89
2022/10/04 08:58:55;;;;;;;;;;;27.40;53.50;;;;;;5088270;28;19912;-91
2022/10/04 09:01:40;;;;;;;;;;;27.70;52.70;;;;;;5087075;28;20052;-91
2022/10/04 09:04:15;;;;;;;;;;;28.10;52.00;;;;;;5086607;28;19915;-91
2022/10/04 09:06:43;;;;;;;;;;;28.30;51.30;;;;;;5087568;28;19912;-90
2022/10/04 09:09:27;;;;;;;;;;;28.60;50.80;;;;;;5083779;28;19919;-90
2022/10/04 09:12:12;;;;;;;;;;;28.80;50.40;;;;;;5086916;28;20289;-92
2022/10/04 09:14:56;;;;;;;;;;;28.70;50.00;;;;;;5086151;28;20121;-91
2022/10/04 09:17:32;;;;;;;;;;;28.90;49.90;;;;;;5088975;28;20007;-91
2022/10/04 09:20:10;;;;;;;;;;;28.90;49.50;;;;;;5087680;28;20288;-91
2022/10/04 09:22:45;;;;;;;;;;;29.10;49.20;;;;;;5087614;28;19908;-88
2022/10/04 09:25:26;;;;;;;;;;;29.30;49.00;;;;;;5085371;28;20334;-89
2022/10/04 09:27:57;;;;;;;;;;;29.20;48.80;;;;;;5082970;28;20049;-89
2022/10/04 09:30:43;;;;;;;;;;;28.40;48.60;;;;;;5084510;28;20030;-88
2022/10/04 09:33:19;;;;;;;;;;;28.30;49.40;;;;;;5080936;28;20082;-88
2022/10/04 09:36:00;;;;;;;;;;;28.70;49.10;;;;;;5086692;28;19934;-87
2022/10/04 09:38:32;;;;;;;;;;;28.70;49.20;;;;;;5085710;28;19916;-88
2022/10/04 09:41:18;;;;;;;;;;;28.40;48.70;;;;;;5082992;28;20104;-89
2022/10/04 09:43:45;;;;;;;;;;;27.80;48.90;;;;;;5083322;28;20200;-89
2022/10/04 09:46:23;;;;;;;;;;;26.80;49.40;;;;;;5084606;28;19908;-89
2022/10/04 09:48:52;;;;;;;;;;;26.10;50.10;;;;;;5083826;28;19924;-88
2022/10/04 09:51:41;;;;;;;;;;;25.40;50.90;;;;;;5084210;28;19908;-88
2022/10/04 09:54:10;;;;;;;;;;;24.90;51.80;;;;;;5081456;28;19908;-89
2022/10/04 09:56:48;;;;;;;;;;;24.30;52.80;;;;;;5084624;28;19965;-90
2022/10/04 09:59:20;;;;;;;;;;;24.00;53.70;;;;;;5083990;28;20257;-89
2022/10/04 10:02:05;;;;;;;;;;;23.60;54.60;;;;;;5085280;28;19908;-90
2022/10/04 10:04:30;;;;;;;;;;;23.20;55.60;;;;;;5084041;28;20010;-89
2022/10/04 10:07:09;;;;;;;;;;;23.00;56.60;;;;;;5085158;28;20007;-89
2022/10/04 10:15:22;;;;;;;;;;;22.50;59.00;;;;;;5085449;28;19921;-91
2022/10/04 10:18:05;;;;;;;;;;;22.40;59.80;;;;;;5084453;28;19908;-89
2022/10/04 10:20:50;;;;;;;;;;;22.30;60.80;;;;;;5084916;28;20009;-90
2022/10/04 10:23:34;;;;;;;;;;;22.20;61.70;;;;;;5086419;28;19909;-90
2022/10/04 10:26:22;;;;;;;;;;;22.10;62.60;;;;;;5083933;28;19908;-90
2022/10/04 10:29:03;;;;;;;;;;;22.00;63.60;;;;;;5086966;28;20285;-89
2022/10/04 10:31:29;;;;;;;;;;;21.90;64.80;;;;;;5081890;28;19912;-90
2022/10/04 10:34:00;;;;;;;;;;;21.80;65.80;;;;;;5082256;28;19915;-88
2022/10/04 10:36:44;;;;;;;;;;;21.70;66.70;;;;;;5081028;28;20180;-89
2022/10/04 10:39:29;;;;;;;;;;;21.60;67.50;;;;;;5081676;28;19912;-90
2022/10/04 10:42:13;;;;;;;;;;;21.60;68.20;;;;;;5081971;28;19947;-88
2022/10/04 10:44:42;;;;;;;;;;;21.50;69.00;;;;;;5080999;28;20352;-89
2022/10/04 10:47:29;;;;;;;;;;;21.40;69.80;;;;;;5083163;28;20126;-89
2022/10/04 10:50:01;;;;;;;;;;;21.30;70.50;;;;;;5080665;28;19969;-89
2022/10/04 10:52:42;;;;;;;;;;;21.30;71.30;;;;;;5081158;28;20393;-89
2022/10/04 10:55:14;;;;;;;;;;;21.30;71.90;;;;;;5080652;28;19977;-88
2022/10/04 10:57:57;;;;;;;;;;;21.20;72.60;;;;;;5078882;28;19968;-90
2022/10/04 11:00:25;;;;;;;;;;;21.10;73.20;;;;;;5080187;28;19912;-89
2022/10/04 11:03:13;;;;;;;;;;;21.10;74.60;;;;;;5082458;28;19908;-90
2022/10/04 11:05:57;;;;;;;;;;;21.10;74.60;;;;;;5084594;28;19919;-89
2022/10/04 11:08:41;;;;;;;;;;;21.10;75.30;;;;;;5083506;28;20166;-89
2022/10/04 11:11:12;;;;;;;;;;;21.00;75.80;;;;;;5086006;28;19923;-90
2022/10/04 11:13:49;;;;;;;;;;;21.00;76.30;;;;;;5084585;28;20320;-89
2022/10/04 11:16:34;;;;;;;;;;;21.00;76.80;;;;;;5084357;28;20272;-88
2022/10/04 11:19:18;;;;;;;;;;;21.00;77.80;;;;;;5083331;28;20108;-86
2022/10/04 11:22:06;;;;;;;;;;;20.90;77.60;;;;;;5084898;28;19916;-88
2022/10/04 11:24:38;;;;;;;;;;;20.90;78.10;;;;;;5082204;28;19951;-87
2022/10/04 11:27:11;;;;;;;;;;;20.90;78.60;;;;;;5081659;28;19947;-87
2022/10/04 11:29:55;;;;;;;;;;;20.80;78.80;;;;;;5083939;28;19908;-88
2022/10/04 11:32:39;;;;;;;;;;;20.80;79.20;;;;;;5083875;28;19916;-88
2022/10/04 11:35:08;;;;;;;;;;;20.80;79.60;;;;;;5083989;28;20155;-89
2022/10/04 11:37:49;;;;;;;;;;;20.80;80.00;;;;;;5083834;28;19969;-87
2022/10/04 11:40:17;;;;;;;;;;;20.80;80.80;;;;;;5083798;28;20017;-88
2022/10/04 11:43:02;;;;;;;;;;;20.80;80.60;;;;;;5085806;28;19908;-87
2022/10/04 11:45:32;;;;;;;;;;;20.80;80.80;;;;;;5087809;28;20225;-87
2022/10/04 11:48:34;;;;;;;;;;;20.80;81.20;;;;;;5086323;28;20273;-88
2022/10/04 11:51:09;;;;;;;;;;;20.80;81.40;;;;;;5070327;28;20357;-90
2022/10/04 11:53:44;;;;;;;;;;;20.80;81.60;;;;;;5066963;28;19922;-88
2022/10/04 11:56:28;;;;;;;;;;;20.80;81.90;;;;;;5066912;28;20105;-89
2022/10/04 11:59:07;;;;;;;;;;;20.70;82.00;;;;;;5086864;28;19915;-90
2022/10/04 12:01:52;;;;;;;;;;;20.70;82.30;;;;;;5087981;28;19908;-89
2022/10/04 12:04:38;;;;;;;;;;;20.70;82.50;;;;;;5088969;28;20165;-90
2022/10/04 12:07:05;;;;;;;;;;;20.70;82.60;;;;;;5088040;28;20089;-89
2022/10/04 12:09:37;;;;;;;;;;;20.70;82.80;;;;;;5087205;28;19909;-89
2022/10/04 12:12:37;;;;;;;;;;;20.70;82.80;;;;;;5085196;28;19919;-89
2022/10/04 12:15:29;;;;;;;;;;;20.70;82.90;;;;;;5086394;28;20395;-89
2022/10/04 12:18:13;;;;;;;;;;;20.70;83.10;;;;;;5087128;28;19908;-90
2022/10/04 12:20:55;;;;;;;;;;;20.70;83.50;;;;;;5086114;28;19916;-89
2022/10/04 12:23:27;;;;;;;;;;;20.70;83.80;;;;;;5084630;28;19943;-88
2022/10/04 12:26:06;;;;;;;;;;;20.70;83.90;;;;;;5085632;28;19944;-87
2022/10/04 12:28:52;;;;;;;;;;;20.70;83.90;;;;;;5085243;28;20205;-88
2022/10/04 12:31:30;;;;;;;;;;;20.70;84.10;;;;;;5087323;28;20328;-87
2022/10/04 12:34:01;;;;;;;;;;;20.60;84.10;;;;;;5085716;28;20110;-87
2022/10/04 12:36:38;;;;;;;;;;;20.60;84.50;;;;;;5086476;28;19908;-87
2022/10/04 12:39:23;;;;;;;;;;;20.60;84.60;;;;;;5085081;28;20106;-87
2022/10/04 12:41:48;;;;;;;;;;;20.60;85.60;;;;;;5085523;28;20201;-87
2022/10/04 12:44:17;;;;;;;;;;;20.60;85.20;;;;;;5084738;28;19908;-88
2022/10/04 12:46:43;;;;;;;;;;;20.60;85.30;;;;;;5084171;28;20106;-87
2022/10/04 12:49:21;;;;;;;;;;;20.60;85.60;;;;;;5085885;28;19977;-88
2022/10/04 12:51:49;;;;;;;;;;;20.60;85.80;;;;;;5086050;28;19989;-88
2022/10/04 12:54:34;;;;;;;;;;;20.60;86.00;;;;;;5085630;28;19908;-88
2022/10/04 12:57:00;;;;;;;;;;;20.60;86.30;;;;;;5087456;28;19912;-90
2022/10/04 12:59:28;;;;;;;;;;;20.50;86.50;;;;;;5085138;28;20100;-90
2022/10/04 13:02:01;;;;;;;;;;;20.60;86.70;;;;;;5085646;28;20177;-90
2022/10/04 13:04:34;;;;;;;;;;;20.50;86.80;;;;;;5084355;28;20057;-90
2022/10/04 13:07:00;;;;;;;;;;;20.50;87.00;;;;;;5086659;28;19935;-90
2022/10/04 13:09:31;;;;;;;;;;;20.50;87.30;;;;;;5086236;28;19916;-91
2022/10/04 13:12:00;;;;;;;;;;;20.50;87.50;;;;;;5087949;28;20007;-91
2022/10/04 13:14:32;;;;;;;;;;;20.50;87.60;;;;;;5088863;28;19912;-91
2022/10/04 13:17:02;;;;;;;;;;;20.50;87.80;;;;;;5086746;28;20039;-92
2022/10/04 13:19:30;;;;;;;;;;;20.50;87.90;;;;;;5084333;28;19916;-90
2022/10/04 13:22:08;;;;;;;;;;;20.50;88.00;;;;;;5086894;28;19924;-89
2022/10/04 13:24:54;;;;;;;;;;;20.50;88.30;;;;;;5070818;28;19908;-89
2022/10/04 13:27:26;;;;;;;;;;;20.50;88.30;;;;;;5064849;28;19916;-89
2022/10/04 13:30:27;;;;;;;;;;;20.50;88.50;;;;;;5066009;28;20331;-91
2022/10/04 13:33:11;;;;;;;;;;;20.50;88.60;;;;;;5045410;28;19919;-90
2022/10/04 13:35:40;;;;;;;;;;;20.50;88.80;;;;;;5079552;28;19908;-91
2022/10/04 13:38:25;;;;;;;;;;;20.50;89.00;;;;;;5065349;28;20067;-90
2022/10/04 13:40:54;;;;;;;;;;;20.50;89.20;;;;;;5066428;28;19912;-91
2022/10/04 13:43:40;;;;;;;;;;;20.50;89.30;;;;;;5065691;28;19958;-91
2022/10/04 13:46:09;;;;;;;;;;;20.50;89.40;;;;;;5064679;28;20091;-90
2022/10/04 13:48:37;;;;;;;;;;;20.50;89.50;;;;;;5063349;28;19913;-91
2022/10/04 13:51:18;;;;;;;;;;;20.50;89.60;;;;;;5061317;28;20083;-91
2022/10/04 13:56:58;;;;;;;;;;;20.50;89.80;;;;;;5062205;28;20132;-91
2022/10/04 13:59:33;;;;;;;;;;;20.50;90.00;;;;;;5062481;28;20319;-91
2022/10/04 14:02:22;;;;;;;;;;;20.50;90.00;;;;;;5063161;28;20373;-87
2022/10/04 14:05:00;;;;;;;;;;;20.50;90.10;;;;;;5060563;28;19909;-87
2022/10/04 14:07:33;;;;;;;;;;;20.50;90.10;;;;;;5062241;28;19909;-88
2022/10/04 14:10:25;;;;;;;;;;;20.50;90.20;;;;;;5060273;28;20192;-88
2022/10/04 14:13:17;;;;;;;;;;;20.50;90.20;;;;;;5051250;28;20153;-89
2022/10/04 14:15:52;;;;;;;;;;;20.50;90.30;;;;;;5060430;28;20454;-88
2022/10/04 14:18:24;;;;;;;;;;;20.50;90.30;;;;;;5063485;28;20185;-88
2022/10/04 14:21:11;;;;;;;;;;;20.50;90.30;;;;;;5061345;28;20068;-88
2022/10/04 14:23:37;;;;;;;;;;;20.50;90.40;;;;;;5062218;28;19916;-88
2022/10/04 14:26:22;;;;;;;;;;;20.50;90.40;;;;;;5064051;28;20038;-88
2022/10/04 14:28:59;;;;;;;;;;;20.50;90.50;;;;;;5063724;28;20135;-88
2022/10/04 14:31:45;;;;;;;;;;;20.50;90.50;;;;;;5061862;28;19908;-89
2022/10/04 14:34:14;;;;;;;;;;;20.50;90.60;;;;;;5064566;28;19912;-90
2022/10/04 14:36:59;;;;;;;;;;;20.50;90.60;;;;;;5064576;28;19909;-89
2022/10/04 14:39:43;;;;;;;;;;;20.50;90.70;;;;;;5064449;28;19912;-89
2022/10/04 14:42:13;;;;;;;;;;;20.50;90.70;;;;;;5063851;28;20173;-88
2022/10/04 14:44:52;;;;;;;;;;;20.50;90.70;;;;;;5066667;28;19998;-90
2022/10/04 14:47:23;;;;;;;;;;;20.50;90.70;;;;;;5063031;28;19908;-90
2022/10/04 14:49:58;;;;;;;;;;;20.50;90.80;;;;;;5062155;28;19931;-89
2022/10/04 14:52:27;;;;;;;;;;;20.50;90.80;;;;;;5062383;28;19920;-90
2022/10/04 14:54:59;;;;;;;;;;;20.50;90.80;;;;;;5059918;28;19919;-89
2022/10/04 14:57:43;;;;;;;;;;;20.50;90.90;;;;;;5063650;28;20003;-89
2022/10/04 15:00:14;;;;;;;;;;;20.50;90.80;;;;;;5061715;28;20440;-90
2022/10/04 15:02:48;;;;;;;;;;;20.50;90.90;;;;;;5060094;28;20159;-90
2022/10/04 15:05:32;;;;;;;;;;;20.50;90.90;;;;;;5059910;28;19909;-89
2022/10/04 15:08:13;;;;;;;;;;;20.50;90.90;;;;;;5060593;28;19909;-89
2022/10/04 15:10:58;;;;;;;;;;;20.50;91.00;;;;;;5061486;28;19913;-89
2022/10/04 15:13:23;;;;;;;;;;;20.50;91.00;;;;;;5064842;28;19942;-90
2022/10/04 15:16:08;;;;;;;;;;;20.50;91.10;;;;;;5064211;28;20223;-89
2022/10/04 15:18:48;;;;;;;;;;;20.50;91.10;;;;;;5062115;28;19908;-89
2022/10/04 15:21:29;;;;;;;;;;;20.50;91.20;;;;;;5061493;28;20007;-89
2022/10/04 15:24:09;;;;;;;;;;;20.50;91.20;;;;;;5063646;28;20362;-89